createdAt,value
2019-04-27T00:01:49.163Z,13.00
2019-04-27T00:06:09.898Z,13.00
2019-04-27T00:10:40.454Z,13.00
2019-04-27T00:14:59.471Z,13.00
2019-04-27T00:19:35.288Z,13.00
2019-04-27T00:23:53.197Z,13.00
2019-04-27T00:28:12.849Z,13.10
2019-04-27T00:32:33.119Z,13.10
2019-04-27T00:37:13.672Z,13.10
2019-04-27T00:41:33.905Z,13.20
2019-04-27T00:45:53.736Z,13.20
2019-04-27T00:50:13.458Z,13.20
2019-04-27T00:54:33.886Z,13.20
2019-04-27T00:59:26.701Z,13.20
2019-04-27T01:04:13.592Z,13.20
2019-04-27T01:08:32.068Z,13.10
2019-04-27T01:12:50.519Z,13.00
2019-04-27T01:17:09.327Z,12.90
2019-04-27T01:21:29.540Z,12.90
2019-04-27T01:26:07.192Z,12.80
2019-04-27T01:30:32.495Z,12.70
2019-04-27T01:34:50.757Z,12.60
2019-04-27T01:39:13.232Z,12.60
2019-04-27T01:43:31.321Z,12.50
2019-04-27T01:47:50.499Z,12.40
2019-04-27T01:52:09.606Z,12.30
2019-04-27T01:56:29.380Z,12.30
2019-04-27T02:01:14.335Z,12.20
2019-04-27T02:05:51.820Z,12.10
2019-04-27T02:10:13.470Z,12.10
2019-04-27T02:14:32.633Z,12.10
2019-04-27T02:18:50.855Z,12.00
2019-04-27T02:23:10.167Z,12.00
2019-04-27T02:27:31.954Z,12.00
2019-04-27T02:32:10.885Z,11.90
2019-04-27T02:36:30.507Z,11.90
2019-04-27T02:40:59.553Z,11.90
2019-04-27T02:45:19.581Z,11.90
2019-04-27T02:49:37.285Z,11.80
2019-04-27T02:53:56.662Z,11.70
2019-04-27T02:58:15.190Z,11.60
2019-04-27T03:02:41.118Z,11.60
2019-04-27T03:07:00.228Z,11.50
2019-04-27T03:11:23.312Z,11.40
2019-04-27T03:16:02.393Z,11.40
2019-04-27T03:20:31.789Z,11.30
2019-04-27T03:25:31.933Z,11.30
2019-04-27T03:29:49.708Z,11.20
2019-04-27T03:34:15.783Z,11.10
2019-04-27T03:38:30.081Z,11.00
2019-04-27T03:42:50.530Z,11.00
2019-04-27T03:47:12.323Z,11.00
2019-04-27T03:51:34.708Z,10.90
2019-04-27T03:55:55.607Z,10.90
2019-04-27T04:00:19.987Z,10.90
2019-04-27T04:04:40.406Z,10.90
2019-04-27T04:09:00.251Z,10.90
2019-04-27T04:13:25.932Z,11.00
2019-04-27T04:17:44.232Z,11.00
2019-04-27T04:22:02.591Z,11.00
2019-04-27T04:26:21.021Z,11.10
2019-04-27T04:30:40.214Z,11.10
2019-04-27T04:35:21.523Z,11.10
2019-04-27T04:39:40.605Z,11.20
2019-04-27T04:44:09.760Z,11.20
2019-04-27T04:48:30.177Z,11.30
2019-04-27T04:52:49.952Z,11.50
2019-04-27T04:57:09.299Z,12.00
2019-04-27T05:01:29.911Z,12.80
2019-04-27T05:05:50.107Z,13.60
2019-04-27T05:10:09.189Z,14.50
2019-04-27T05:14:28.818Z,15.30
2019-04-27T05:18:47.251Z,16.00
2019-04-27T05:23:05.588Z,16.60
2019-04-27T05:27:23.927Z,16.90
2019-04-27T05:31:42.348Z,17.00
2019-04-27T05:36:01.402Z,17.00
2019-04-27T05:40:19.746Z,16.90
2019-04-27T05:45:34.026Z,17.00
2019-04-27T05:49:58.860Z,17.50
2019-04-27T05:54:19.141Z,18.10
2019-04-27T05:58:39.229Z,18.70
2019-04-27T06:02:59.027Z,19.20
2019-04-27T06:07:19.328Z,19.50
2019-04-27T06:11:37.641Z,19.70
2019-04-27T06:15:55.869Z,19.90
2019-04-27T06:20:14.340Z,20.20
2019-04-27T06:24:32.862Z,20.60
2019-04-27T06:28:51.916Z,21.10
2019-04-27T06:33:10.246Z,21.80
2019-04-27T06:37:29.392Z,22.60
2019-04-27T06:41:49.040Z,23.30
2019-04-27T06:46:08.794Z,23.80
2019-04-27T06:50:27.233Z,24.40
2019-04-27T06:54:45.480Z,24.90
2019-04-27T06:59:04.208Z,25.30
2019-04-27T07:03:22.880Z,25.40
2019-04-27T07:07:41.179Z,25.30
2019-04-27T07:12:00.818Z,25.30
2019-04-27T07:16:19.717Z,25.30
2019-04-27T07:20:38.858Z,25.40
2019-04-27T07:24:58.958Z,25.50
2019-04-27T07:29:19.442Z,25.60
2019-04-27T07:33:39.585Z,25.60
2019-04-27T07:37:59.033Z,25.60
2019-04-27T07:42:17.314Z,25.50
2019-04-27T07:46:35.838Z,25.20
2019-04-27T07:50:54.714Z,24.70
2019-04-27T07:55:13.168Z,24.20
2019-04-27T07:59:31.493Z,23.70
2019-04-27T08:03:50.158Z,23.20
2019-04-27T08:08:09.001Z,22.70
2019-04-27T08:12:28.852Z,22.10
2019-04-27T08:16:48.688Z,21.60
2019-04-27T08:21:08.827Z,21.20
2019-04-27T08:25:28.681Z,20.90
2019-04-27T08:30:06.174Z,20.80
2019-04-27T08:34:34.378Z,20.70
2019-04-27T08:38:53.033Z,20.60
2019-04-27T08:43:11.762Z,20.50
2019-04-27T08:47:30.933Z,20.40
2019-04-27T08:51:57.208Z,20.20
2019-04-27T08:56:09.381Z,19.90
2019-04-27T09:00:29.123Z,19.50
2019-04-27T09:04:47.405Z,19.20
2019-04-27T09:09:11.649Z,18.90
2019-04-27T09:13:51.826Z,18.60
2019-04-27T09:18:12.434Z,18.40
2019-04-27T09:22:31.659Z,18.20
2019-04-27T09:26:49.917Z,18.00
2019-04-27T09:31:09.239Z,17.90
2019-04-27T09:35:28.538Z,17.70
2019-04-27T09:39:49.042Z,17.60
2019-04-27T09:44:08.164Z,17.50
2019-04-27T09:48:26.605Z,17.40
2019-04-27T09:52:45.991Z,17.30
2019-04-27T09:57:04.432Z,17.20
2019-04-27T10:01:23.379Z,17.10
2019-04-27T10:05:42.083Z,17.00
2019-04-27T10:10:03.941Z,16.90
2019-04-27T10:14:22.612Z,17.00
2019-04-27T10:18:41.309Z,17.20
2019-04-27T10:22:59.907Z,17.40
2019-04-27T10:27:18.474Z,17.50
2019-04-27T10:31:37.554Z,17.40
2019-04-27T10:35:56.465Z,17.20
2019-04-27T10:40:16.188Z,17.20
2019-04-27T10:44:35.572Z,17.20
2019-04-27T10:48:55.634Z,17.30
2019-04-27T10:53:14.244Z,17.40
2019-04-27T10:57:33.611Z,17.40
2019-04-27T11:01:52.419Z,17.30
2019-04-27T11:06:30.483Z,17.20
2019-04-27T11:10:48.851Z,17.10
2019-04-27T11:15:09.307Z,17.10
2019-04-27T11:19:27.670Z,17.10
2019-04-27T11:23:46.291Z,17.00
2019-04-27T11:28:05.804Z,17.00
2019-04-27T11:32:24.736Z,17.00
2019-04-27T11:37:03.359Z,17.00
2019-04-27T11:41:22.961Z,17.00
2019-04-27T11:45:41.352Z,17.00
2019-04-27T11:49:59.651Z,17.00
2019-04-27T11:54:17.945Z,17.00
2019-04-27T11:58:36.252Z,17.10
2019-04-27T12:02:56.568Z,17.20
2019-04-27T12:07:15.373Z,17.40
2019-04-27T12:11:33.755Z,17.70
2019-04-27T12:15:52.590Z,17.90
2019-04-27T12:20:11.171Z,18.20
2019-04-27T12:24:29.540Z,18.40
2019-04-27T12:28:51.391Z,18.60
2019-04-27T12:33:10.112Z,18.70
2019-04-27T12:37:28.483Z,18.80
2019-04-27T12:41:48.585Z,18.80
2019-04-27T12:46:07.472Z,18.70
2019-04-27T12:50:26.525Z,18.70
2019-04-27T12:54:58.503Z,19.00
2019-04-27T12:59:36.551Z,19.20
2019-04-27T13:03:58.953Z,19.40
2019-04-27T13:08:15.574Z,19.60
2019-04-27T13:12:35.782Z,19.70
2019-04-27T13:16:56.029Z,19.70
2019-04-27T13:21:15.700Z,19.70
2019-04-27T13:25:34.204Z,19.60
2019-04-27T13:29:52.726Z,19.70
2019-04-27T13:34:11.300Z,19.90
2019-04-27T13:38:29.931Z,20.00
2019-04-27T13:43:07.579Z,20.10
2019-04-27T13:47:34.318Z,20.00
2019-04-27T13:52:03.343Z,19.80
2019-04-27T13:56:26.225Z,19.50
2019-04-27T14:00:44.705Z,19.30
2019-04-27T14:05:03.064Z,19.00
2019-04-27T14:09:21.537Z,18.80
2019-04-27T14:13:39.921Z,18.70
2019-04-27T14:17:59.266Z,18.60
2019-04-27T14:22:18.287Z,18.60
2019-04-27T14:26:38.520Z,18.60
2019-04-27T14:30:59.677Z,18.50
2019-04-27T14:35:18.224Z,18.40
2019-04-27T14:39:36.599Z,18.30
2019-04-27T14:44:06.083Z,18.30
2019-04-27T14:48:14.725Z,18.20
2019-04-27T14:52:32.905Z,18.00
2019-04-27T14:56:51.569Z,17.60
2019-04-27T15:01:10.252Z,17.10
2019-04-27T15:05:28.553Z,16.50
2019-04-27T15:09:49.683Z,15.90
2019-04-27T15:14:09.125Z,15.40
2019-04-27T15:18:34.641Z,15.00
2019-04-27T15:22:56.703Z,14.60
2019-04-27T15:27:13.379Z,14.50
2019-04-27T15:31:40.895Z,14.40
2019-04-27T15:36:07.681Z,14.30
2019-04-27T15:40:44.016Z,14.20
2019-04-27T15:45:04.269Z,14.20
2019-04-27T15:49:23.573Z,14.20
2019-04-27T15:53:45.888Z,14.30
2019-04-27T15:58:02.260Z,14.40
2019-04-27T16:02:20.639Z,14.40
2019-04-27T16:06:42.844Z,14.40
2019-04-27T16:10:59.756Z,14.50
2019-04-27T16:15:18.518Z,14.50
2019-04-27T16:19:42.643Z,14.50
2019-04-27T16:23:58.527Z,14.50
2019-04-27T16:28:18.391Z,14.60
2019-04-27T16:32:40.407Z,14.60
2019-04-27T16:36:59.350Z,14.70
2019-04-27T16:41:18.506Z,14.80
2019-04-27T16:45:38.890Z,14.80
2019-04-27T16:49:58.612Z,14.80
2019-04-27T16:54:21.180Z,14.80
2019-04-27T16:58:39.652Z,14.70
2019-04-27T17:03:01.367Z,14.60
2019-04-27T17:07:18.919Z,14.60
2019-04-27T17:11:38.800Z,14.50
2019-04-27T17:16:31.249Z,14.50
2019-04-27T17:20:48.283Z,14.40
2019-04-27T17:25:08.838Z,14.40
2019-04-27T17:29:28.256Z,14.30
2019-04-27T17:33:51.943Z,14.20
2019-04-27T17:38:12.835Z,14.20
2019-04-27T17:42:31.188Z,14.10
2019-04-27T17:46:51.276Z,14.10
2019-04-27T17:51:10.804Z,14.00
2019-04-27T17:55:29.221Z,14.00
2019-04-27T17:59:51.313Z,14.00
2019-04-27T18:04:10.472Z,13.90
2019-04-27T18:08:29.122Z,13.70
2019-04-27T18:12:48.716Z,13.50
2019-04-27T18:17:10.343Z,13.20
2019-04-27T18:21:31.216Z,12.90
2019-04-27T18:25:55.701Z,12.70
2019-04-27T18:30:38.671Z,12.50
2019-04-27T18:34:58.469Z,12.40
2019-04-27T18:39:18.223Z,12.30
2019-04-27T18:43:38.544Z,12.30
2019-04-27T18:48:06.679Z,12.30
2019-04-27T18:52:49.648Z,12.30
2019-04-27T18:57:10.714Z,12.20
2019-04-27T19:01:28.931Z,12.20
2019-04-27T19:05:48.106Z,12.20
2019-04-27T19:10:08.768Z,12.10
2019-04-27T19:14:28.284Z,12.10
2019-04-27T19:18:48.070Z,12.00
2019-04-27T19:23:08.287Z,11.90
2019-04-27T19:27:48.558Z,11.80
2019-04-27T19:32:11.457Z,11.60
2019-04-27T19:36:30.573Z,11.40
2019-04-27T19:40:48.833Z,11.20
2019-04-27T19:45:07.896Z,11.00
2019-04-27T19:49:26.898Z,10.80
2019-04-27T19:53:45.631Z,10.60
2019-04-27T19:58:04.007Z,10.60
2019-04-27T20:02:22.624Z,10.60
2019-04-27T20:06:40.931Z,10.60
2019-04-27T20:10:59.439Z,10.70
2019-04-27T20:15:17.749Z,10.70
2019-04-27T20:19:36.123Z,10.80
2019-04-27T20:23:54.968Z,10.80
2019-04-27T20:28:13.305Z,10.90
2019-04-27T20:32:32.122Z,10.90
2019-04-27T20:36:51.074Z,10.90
2019-04-27T20:41:11.589Z,10.90
2019-04-27T20:45:30.880Z,10.90
2019-04-27T20:49:51.047Z,10.90
2019-04-27T20:54:09.379Z,10.80
2019-04-27T20:58:27.627Z,10.80
2019-04-27T21:03:11.764Z,10.70
2019-04-27T21:07:42.724Z,10.70
2019-04-27T21:12:01.537Z,10.60
2019-04-27T21:16:21.113Z,10.50
2019-04-27T21:20:41.154Z,10.50
2019-04-27T21:25:01.506Z,10.50
2019-04-27T21:29:21.023Z,10.40
2019-04-27T21:33:40.899Z,10.40
2019-04-27T21:38:01.154Z,10.40
2019-04-27T21:42:21.237Z,10.40
2019-04-27T21:46:42.217Z,10.30
2019-04-27T21:51:01.520Z,10.30
2019-04-27T21:55:21.969Z,10.30
2019-04-27T21:59:41.842Z,10.20
2019-04-27T22:04:01.046Z,10.10
2019-04-27T22:08:21.436Z,10.10
2019-04-27T22:12:41.591Z,10.00
2019-04-27T22:17:00.883Z,10.00
2019-04-27T22:21:21.450Z,9.90
2019-04-27T22:25:39.634Z,9.90
2019-04-27T22:29:58.245Z,9.90
2019-04-27T22:34:16.616Z,9.90
2019-04-27T22:38:35.143Z,9.90
2019-04-27T22:43:04.012Z,10.00
2019-04-27T22:47:22.304Z,10.00
2019-04-27T22:51:41.184Z,10.00
2019-04-27T22:56:13.542Z,10.00
2019-04-27T23:00:56.825Z,10.00
2019-04-27T23:05:15.412Z,10.00
2019-04-27T23:09:33.832Z,10.00
2019-04-27T23:13:52.527Z,9.90
2019-04-27T23:18:11.685Z,9.90
2019-04-27T23:22:31.497Z,9.90
2019-04-27T23:26:49.874Z,9.80
2019-04-27T23:31:15.343Z,9.80
2019-04-27T23:35:33.722Z,9.70
2019-04-27T23:39:52.895Z,9.70
2019-04-27T23:44:11.187Z,9.60
2019-04-27T23:48:31.972Z,9.60
2019-04-27T23:53:17.973Z,9.60
2019-04-27T23:57:36.537Z,9.50
